createdAt,value
2017-01-25T00:00:39.654Z,0
2017-01-25T00:01:51.304Z,0
2017-01-25T00:03:02.703Z,0
2017-01-25T00:04:14.128Z,0
2017-01-25T00:05:25.530Z,0
2017-01-25T00:06:36.930Z,0
2017-01-25T00:07:48.576Z,0
2017-01-25T00:08:59.978Z,0
2017-01-25T00:10:11.373Z,0
2017-01-25T00:11:22.776Z,0
2017-01-25T00:12:34.571Z,0
2017-01-25T00:13:46.216Z,0
2017-01-25T00:14:57.605Z,0
2017-01-25T00:16:08.999Z,0
2017-01-25T00:17:20.390Z,0
2017-01-25T00:18:31.807Z,0
2017-01-25T00:19:43.263Z,0
2017-01-25T00:20:54.662Z,0
2017-01-25T00:22:06.052Z,0
2017-01-25T00:23:17.448Z,0
2017-01-25T00:24:28.846Z,0
2017-01-25T00:25:40.291Z,0
2017-01-25T00:26:51.716Z,0
2017-01-25T00:28:03.119Z,0
2017-01-25T00:29:14.506Z,0
2017-01-25T00:30:25.898Z,0
2017-01-25T00:31:37.347Z,0
2017-01-25T00:32:48.740Z,0
2017-01-25T00:34:00.140Z,0
2017-01-25T00:35:11.588Z,0
2017-01-25T00:36:22.979Z,0
2017-01-25T00:37:34.428Z,0
2017-01-25T00:38:45.819Z,0
2017-01-25T00:39:57.217Z,0
2017-01-25T00:41:08.618Z,0
2017-01-25T00:42:20.210Z,0
2017-01-25T00:43:31.664Z,0
2017-01-25T00:44:43.052Z,0
2017-01-25T00:45:54.451Z,0
2017-01-25T00:47:05.870Z,0
2017-01-25T00:48:17.462Z,0
2017-01-25T00:49:28.910Z,0
2017-01-25T00:50:40.308Z,0
2017-01-25T00:51:51.708Z,0
2017-01-25T00:53:03.109Z,0
2017-01-25T00:54:14.518Z,0
2017-01-25T00:55:26.167Z,0
2017-01-25T00:56:37.562Z,0
2017-01-25T00:57:48.962Z,0
2017-01-25T00:59:00.351Z,0
2017-01-25T01:00:11.746Z,0
2017-01-25T01:01:23.393Z,0
2017-01-25T01:02:34.786Z,0
2017-01-25T01:03:46.185Z,0
2017-01-25T01:04:57.611Z,0
2017-01-25T01:06:09.207Z,0
2017-01-25T01:07:20.656Z,0
2017-01-25T01:08:32.274Z,0
2017-01-25T01:09:43.669Z,0
2017-01-25T01:10:55.493Z,0
2017-01-25T01:12:06.891Z,0
2017-01-25T01:13:18.360Z,0
2017-01-25T01:14:29.751Z,0
2017-01-25T01:15:41.151Z,0
2017-01-25T01:16:52.743Z,0
2017-01-25T01:18:04.144Z,0
2017-01-25T01:19:15.589Z,0
2017-01-25T01:20:26.988Z,0
2017-01-25T01:21:38.380Z,0
2017-01-25T01:22:49.763Z,0
2017-01-25T01:24:01.157Z,0
2017-01-25T01:25:12.810Z,0
2017-01-25T01:26:24.204Z,0
2017-01-25T01:27:35.600Z,0
2017-01-25T01:28:46.992Z,0
2017-01-25T01:29:58.384Z,0
2017-01-25T01:31:09.823Z,0
2017-01-25T01:32:21.213Z,0
2017-01-25T01:33:32.606Z,0
2017-01-25T01:34:44.204Z,0
2017-01-25T01:35:55.601Z,0
2017-01-25T01:37:07.045Z,0
2017-01-25T01:38:18.642Z,0
2017-01-25T01:39:30.755Z,0
2017-01-25T01:40:42.171Z,0
2017-01-25T01:41:53.565Z,0
2017-01-25T01:43:05.004Z,0
2017-01-25T01:44:16.600Z,0
2017-01-25T01:45:27.994Z,0
2017-01-25T01:46:39.389Z,0
2017-01-25T01:47:50.779Z,0
2017-01-25T01:49:02.221Z,0
2017-01-25T01:50:13.620Z,0
2017-01-25T01:51:25.011Z,0
2017-01-25T01:52:36.405Z,0
2017-01-25T01:53:47.796Z,0
2017-01-25T01:54:59.248Z,0
2017-01-25T01:56:10.643Z,0
2017-01-25T01:57:22.039Z,0
2017-01-25T01:58:33.433Z,0
2017-01-25T01:59:45.228Z,0
2017-01-25T02:00:56.673Z,0
2017-01-25T02:02:08.075Z,0
2017-01-25T02:03:19.469Z,0
2017-01-25T02:04:30.865Z,0
2017-01-25T02:05:42.256Z,0
2017-01-25T02:06:53.893Z,0
2017-01-25T02:08:05.496Z,0
2017-01-25T02:09:16.898Z,0
2017-01-25T02:10:28.285Z,0
2017-01-25T02:11:39.679Z,0
2017-01-25T02:12:51.114Z,0
2017-01-25T02:14:02.509Z,0
2017-01-25T02:15:14.138Z,0
2017-01-25T02:16:25.534Z,0
2017-01-25T02:17:36.932Z,0
2017-01-25T02:18:48.571Z,0
2017-01-25T02:19:59.967Z,0
2017-01-25T02:21:11.358Z,0
2017-01-25T02:22:22.747Z,0
2017-01-25T02:23:34.144Z,0
2017-01-25T02:24:45.585Z,0
2017-01-25T02:25:56.983Z,0
2017-01-25T02:27:08.378Z,0
2017-01-25T02:28:19.967Z,0
2017-01-25T02:29:31.356Z,0
2017-01-25T02:30:42.811Z,0
2017-01-25T02:31:54.222Z,0
2017-01-25T02:33:05.805Z,0
2017-01-25T02:34:17.188Z,0
2017-01-25T02:35:28.775Z,0
2017-01-25T02:36:40.200Z,0
2017-01-25T02:37:51.582Z,0
2017-01-25T02:39:03.163Z,0
2017-01-25T02:40:14.543Z,0
2017-01-25T02:41:26.122Z,0
2017-01-25T02:42:37.546Z,0
2017-01-25T02:43:48.928Z,0
2017-01-25T02:45:00.307Z,0
2017-01-25T02:46:11.683Z,0
2017-01-25T02:47:23.061Z,0
2017-01-25T02:48:34.494Z,0
2017-01-25T02:49:46.272Z,0
2017-01-25T02:50:57.850Z,0
2017-01-25T02:52:09.238Z,0
2017-01-25T02:53:20.825Z,0
2017-01-25T02:54:32.256Z,0
2017-01-25T02:55:43.664Z,0
2017-01-25T02:56:55.051Z,0
2017-01-25T02:58:06.428Z,0
2017-01-25T02:59:17.811Z,0
2017-01-25T03:00:29.438Z,0
2017-01-25T03:01:41.040Z,0
2017-01-25T03:02:52.616Z,0
2017-01-25T03:04:04.050Z,0
2017-01-25T03:05:15.633Z,0
2017-01-25T03:06:27.070Z,0
2017-01-25T03:07:38.446Z,0
2017-01-25T03:08:49.834Z,0
2017-01-25T03:10:01.220Z,0
2017-01-25T03:11:12.608Z,0
2017-01-25T03:12:24.036Z,0
2017-01-25T03:13:35.419Z,0
2017-01-25T03:14:46.787Z,0
2017-01-25T03:15:58.371Z,0
2017-01-25T03:17:09.749Z,0
2017-01-25T03:18:21.177Z,0
2017-01-25T03:19:32.555Z,0
2017-01-25T03:20:43.939Z,0
2017-01-25T03:21:55.324Z,0
2017-01-25T03:23:06.701Z,0
2017-01-25T03:24:18.129Z,0
2017-01-25T03:25:29.506Z,0
2017-01-25T03:26:40.892Z,0
2017-01-25T03:27:52.269Z,0
2017-01-25T03:29:04.047Z,0
2017-01-25T03:30:15.500Z,0
2017-01-25T03:31:26.883Z,0
2017-01-25T03:32:38.263Z,0
2017-01-25T03:33:50.042Z,0
2017-01-25T03:35:01.629Z,0
2017-01-25T03:36:13.055Z,0
2017-01-25T03:37:24.635Z,0
2017-01-25T03:38:36.015Z,0
2017-01-25T03:39:47.590Z,0
2017-01-25T03:40:58.969Z,0
2017-01-25T03:42:10.625Z,0
2017-01-25T03:43:22.203Z,0
2017-01-25T03:44:33.586Z,0
2017-01-25T03:45:44.971Z,0
2017-01-25T03:46:56.377Z,0
2017-01-25T03:48:07.835Z,0
2017-01-25T03:49:19.218Z,0
2017-01-25T03:50:30.598Z,0
2017-01-25T03:51:42.181Z,0
2017-01-25T03:52:53.558Z,0
2017-01-25T03:54:05.013Z,0
2017-01-25T03:55:16.389Z,0
2017-01-25T03:56:27.766Z,0
2017-01-25T03:57:39.157Z,0
2017-01-25T03:58:50.568Z,0
2017-01-25T04:00:01.999Z,0
2017-01-25T04:01:13.584Z,0
2017-01-25T04:02:25.172Z,0
2017-01-25T04:03:36.557Z,0
2017-01-25T04:04:47.935Z,0
2017-01-25T04:05:59.364Z,0
2017-01-25T04:07:10.754Z,0
2017-01-25T04:08:22.337Z,0
2017-01-25T04:09:33.925Z,0
2017-01-25T04:10:45.509Z,0
2017-01-25T04:11:56.934Z,0
2017-01-25T04:13:08.312Z,0
2017-01-25T04:14:19.696Z,0
2017-01-25T04:15:31.272Z,0
2017-01-25T04:16:42.657Z,0
2017-01-25T04:17:54.290Z,0
2017-01-25T04:19:05.675Z,0
2017-01-25T04:20:17.064Z,0
2017-01-25T04:21:28.448Z,0
2017-01-25T04:22:39.825Z,0
2017-01-25T04:23:51.255Z,0
2017-01-25T04:25:02.634Z,0
2017-01-25T04:26:14.216Z,0
2017-01-25T04:27:25.619Z,0
2017-01-25T04:28:36.995Z,0
2017-01-25T04:29:48.428Z,0
2017-01-25T04:30:59.808Z,0
2017-01-25T04:32:11.393Z,0
2017-01-25T04:33:22.773Z,0
2017-01-25T04:34:34.352Z,0
2017-01-25T04:35:45.789Z,0
2017-01-25T04:36:57.175Z,0
2017-01-25T04:38:08.555Z,0
2017-01-25T04:39:19.938Z,0
2017-01-25T04:40:31.315Z,0
2017-01-25T04:41:42.745Z,0
2017-01-25T04:42:54.131Z,0
2017-01-25T04:44:05.709Z,0
2017-01-25T04:45:17.289Z,0
2017-01-25T04:46:28.672Z,0
2017-01-25T04:47:40.100Z,0
2017-01-25T04:48:51.879Z,0
2017-01-25T04:50:03.257Z,0
2017-01-25T04:51:14.641Z,0
2017-01-25T04:52:26.024Z,0
2017-01-25T04:53:37.448Z,0
2017-01-25T04:54:48.830Z,0
2017-01-25T04:56:00.432Z,0
2017-01-25T04:57:12.016Z,0
2017-01-25T04:58:23.401Z,0
2017-01-25T04:59:34.834Z,0
2017-01-25T05:00:46.214Z,0
2017-01-25T05:01:57.627Z,0
2017-01-25T05:03:09.005Z,0
2017-01-25T05:04:20.383Z,0
2017-01-25T05:05:31.806Z,0
2017-01-25T05:06:43.435Z,0
2017-01-25T05:07:54.842Z,0
2017-01-25T05:09:06.225Z,0
2017-01-25T05:10:17.610Z,0
2017-01-25T05:11:29.042Z,0
2017-01-25T05:12:40.438Z,0
2017-01-25T05:13:52.053Z,0
2017-01-25T05:15:03.437Z,0
2017-01-25T05:16:14.814Z,0
2017-01-25T05:17:26.447Z,0
2017-01-25T05:18:37.835Z,0
2017-01-25T05:19:49.219Z,0
2017-01-25T05:21:00.600Z,0
2017-01-25T05:22:11.980Z,0
2017-01-25T05:23:23.420Z,0
2017-01-25T05:24:35.007Z,0
2017-01-25T05:25:46.385Z,0
2017-01-25T05:26:57.767Z,0
2017-01-25T05:28:09.144Z,0
2017-01-25T05:29:20.573Z,0
2017-01-25T05:30:31.959Z,0
2017-01-25T05:31:43.359Z,0
2017-01-25T05:32:54.770Z,0
2017-01-25T05:34:06.153Z,0
2017-01-25T05:35:17.580Z,0
2017-01-25T05:36:28.988Z,0
2017-01-25T05:37:40.367Z,0
2017-01-25T05:38:51.760Z,0
2017-01-25T05:40:03.349Z,0
2017-01-25T05:41:14.782Z,0
2017-01-25T05:42:26.189Z,0
2017-01-25T05:43:37.569Z,0
2017-01-25T05:44:48.949Z,0
2017-01-25T05:46:00.332Z,0
2017-01-25T05:47:11.765Z,0
2017-01-25T05:48:23.146Z,0
2017-01-25T05:49:34.525Z,0
2017-01-25T05:50:45.912Z,0
2017-01-25T05:51:57.303Z,0
2017-01-25T05:53:08.724Z,0
2017-01-25T05:54:20.118Z,0
2017-01-25T05:55:31.503Z,0
2017-01-25T05:56:43.093Z,0
2017-01-25T05:57:54.482Z,0
2017-01-25T05:59:05.927Z,0
2017-01-25T06:00:17.323Z,0
2017-01-25T06:01:28.717Z,0
2017-01-25T06:02:40.113Z,0
2017-01-25T06:03:51.503Z,0
2017-01-25T06:05:02.951Z,0
2017-01-25T06:06:14.343Z,0
2017-01-25T06:07:25.723Z,0
2017-01-25T06:08:37.121Z,0
2017-01-25T06:09:48.509Z,0
2017-01-25T06:10:59.945Z,0
2017-01-25T06:12:11.545Z,0
2017-01-25T06:13:23.139Z,0
2017-01-25T06:14:34.739Z,0
2017-01-25T06:15:46.337Z,0
2017-01-25T06:16:57.786Z,0
2017-01-25T06:18:09.206Z,0
2017-01-25T06:19:20.608Z,0
2017-01-25T06:20:32.005Z,0
2017-01-25T06:21:43.401Z,0
2017-01-25T06:22:54.839Z,0
2017-01-25T06:24:06.223Z,0
2017-01-25T06:25:17.616Z,0
2017-01-25T06:26:29.008Z,0
2017-01-25T06:27:40.403Z,0
2017-01-25T06:28:51.847Z,0
2017-01-25T06:30:03.440Z,0
2017-01-25T06:31:14.834Z,0
2017-01-25T06:32:26.231Z,0
2017-01-25T06:33:37.816Z,0
2017-01-25T06:34:49.243Z,0
2017-01-25T06:36:00.651Z,0
2017-01-25T06:37:12.038Z,0
2017-01-25T06:38:23.427Z,0
2017-01-25T06:39:34.824Z,0
2017-01-25T06:40:46.419Z,0
2017-01-25T06:41:58.015Z,0
2017-01-25T06:43:09.407Z,0
2017-01-25T06:44:20.806Z,0
2017-01-25T06:45:32.244Z,0
2017-01-25T06:46:43.635Z,0
2017-01-25T06:47:55.021Z,0
2017-01-25T06:49:06.416Z,0
2017-01-25T06:50:17.812Z,0
2017-01-25T06:51:29.249Z,0
2017-01-25T06:52:40.638Z,0
2017-01-25T06:53:52.030Z,0
2017-01-25T06:55:03.425Z,0
2017-01-25T06:56:14.815Z,0
2017-01-25T06:57:26.465Z,0
2017-01-25T06:58:37.860Z,0
2017-01-25T06:59:49.250Z,0
2017-01-25T07:01:00.643Z,0
2017-01-25T07:02:12.039Z,0
2017-01-25T07:03:23.480Z,0
2017-01-25T07:04:34.871Z,0
2017-01-25T07:05:46.475Z,5
2017-01-25T07:06:57.869Z,5
2017-01-25T07:08:09.257Z,5
2017-01-25T07:09:20.697Z,5
2017-01-25T07:10:32.096Z,5
2017-01-25T07:11:43.499Z,5
2017-01-25T07:12:54.881Z,10
2017-01-25T07:14:06.273Z,10
2017-01-25T07:15:17.667Z,10
2017-01-25T07:16:29.059Z,10
2017-01-25T07:17:40.451Z,10
2017-01-25T07:18:51.839Z,15
2017-01-25T07:20:03.275Z,15
2017-01-25T07:21:14.661Z,15
2017-01-25T07:22:26.057Z,20
2017-01-25T07:23:37.647Z,20
2017-01-25T07:24:49.496Z,20
2017-01-25T07:26:00.885Z,25
2017-01-25T07:27:12.479Z,25
2017-01-25T07:28:24.076Z,30
2017-01-25T07:29:35.664Z,30
2017-01-25T07:30:47.111Z,35
2017-01-25T07:31:58.496Z,35
2017-01-25T07:33:09.885Z,40
2017-01-25T07:34:21.473Z,45
2017-01-25T07:35:32.868Z,45
2017-01-25T07:36:44.309Z,45
2017-01-25T07:37:55.900Z,50
2017-01-25T07:39:07.489Z,50
2017-01-25T07:40:18.885Z,55
2017-01-25T07:41:30.288Z,60
2017-01-25T07:42:41.728Z,65
2017-01-25T07:43:53.121Z,65
2017-01-25T07:45:04.512Z,70
2017-01-25T07:46:15.900Z,75
2017-01-25T07:47:27.300Z,80
2017-01-25T07:48:38.948Z,85
2017-01-25T07:49:50.359Z,90
2017-01-25T07:51:01.746Z,90
2017-01-25T07:52:13.340Z,95
2017-01-25T07:53:24.733Z,100
2017-01-25T07:54:36.177Z,100
2017-01-25T07:55:47.567Z,105
2017-01-25T07:56:58.968Z,110
2017-01-25T07:58:10.369Z,115
2017-01-25T07:59:21.766Z,120
2017-01-25T08:00:33.203Z,125
2017-01-25T08:01:44.606Z,130
2017-01-25T08:02:55.993Z,135
2017-01-25T08:04:07.386Z,145
2017-01-25T08:05:19.179Z,145
2017-01-25T08:06:30.631Z,150
2017-01-25T08:07:42.242Z,160
2017-01-25T08:08:53.639Z,165
2017-01-25T08:10:05.031Z,175
2017-01-25T08:11:16.826Z,185
2017-01-25T08:12:28.262Z,195
2017-01-25T08:13:39.655Z,195
2017-01-25T08:14:51.050Z,210
2017-01-25T08:16:02.650Z,245
2017-01-25T08:17:14.267Z,290
2017-01-25T08:18:25.705Z,320
2017-01-25T08:19:37.094Z,335
2017-01-25T08:20:48.491Z,390
2017-01-25T08:21:59.888Z,345
2017-01-25T08:23:11.480Z,295
2017-01-25T08:24:22.929Z,345
2017-01-25T08:25:34.328Z,465
2017-01-25T08:26:45.921Z,410
2017-01-25T08:27:57.323Z,355
2017-01-25T08:29:08.742Z,380
2017-01-25T08:30:20.179Z,280
2017-01-25T08:31:31.570Z,300
2017-01-25T08:32:43.165Z,360
2017-01-25T08:33:54.564Z,370
2017-01-25T08:35:05.967Z,345
2017-01-25T08:36:17.612Z,335
2017-01-25T08:37:29.226Z,345
2017-01-25T08:38:40.624Z,340
2017-01-25T08:39:52.015Z,380
2017-01-25T08:41:03.420Z,435
2017-01-25T08:42:14.861Z,445
2017-01-25T08:43:26.253Z,445
2017-01-25T08:44:37.644Z,440
2017-01-25T08:45:49.040Z,440
2017-01-25T08:47:00.434Z,430
2017-01-25T08:48:11.884Z,485
2017-01-25T08:49:23.282Z,490
2017-01-25T08:50:34.879Z,530
2017-01-25T08:51:46.274Z,600
2017-01-25T08:52:57.902Z,595
2017-01-25T08:54:09.541Z,595
2017-01-25T08:55:20.939Z,550
2017-01-25T08:56:32.535Z,400
2017-01-25T08:57:44.127Z,470
2017-01-25T08:58:55.735Z,630
2017-01-25T09:00:07.185Z,730
2017-01-25T09:01:18.580Z,740
2017-01-25T09:02:29.989Z,670
2017-01-25T09:03:41.392Z,630
2017-01-25T09:04:52.809Z,720
2017-01-25T09:06:04.443Z,920
2017-01-25T09:07:15.836Z,885
2017-01-25T09:08:27.239Z,930
2017-01-25T09:09:38.840Z,1005
2017-01-25T09:10:50.237Z,960
2017-01-25T09:12:01.684Z,885
2017-01-25T09:13:13.083Z,885
2017-01-25T09:14:24.483Z,920
2017-01-25T09:15:35.882Z,940
2017-01-25T09:16:47.285Z,835
2017-01-25T09:17:58.730Z,740
2017-01-25T09:19:10.136Z,750
2017-01-25T09:20:21.554Z,715
2017-01-25T09:21:32.955Z,680
2017-01-25T09:22:44.359Z,695
2017-01-25T09:23:55.804Z,730
2017-01-25T09:25:07.204Z,815
2017-01-25T09:26:18.608Z,940
2017-01-25T09:27:30.005Z,990
2017-01-25T09:28:41.405Z,1110
2017-01-25T09:29:53.060Z,1215
2017-01-25T09:31:04.656Z,1295
2017-01-25T09:32:16.053Z,820
2017-01-25T09:33:27.657Z,785
2017-01-25T09:34:39.264Z,590
2017-01-25T09:35:50.717Z,505
2017-01-25T09:37:02.115Z,550
2017-01-25T09:38:13.546Z,670
2017-01-25T09:39:24.943Z,470
2017-01-25T09:40:36.342Z,450
2017-01-25T09:41:47.996Z,485
2017-01-25T09:42:59.387Z,540
2017-01-25T09:44:10.794Z,600
2017-01-25T09:45:22.197Z,505
2017-01-25T09:46:33.604Z,505
2017-01-25T09:47:45.046Z,545
2017-01-25T09:48:56.450Z,510
2017-01-25T09:50:07.846Z,520
2017-01-25T09:51:19.446Z,610
2017-01-25T09:52:30.838Z,615
2017-01-25T09:53:42.286Z,525
2017-01-25T09:54:54.294Z,480
2017-01-25T09:56:05.693Z,460
2017-01-25T09:57:17.094Z,465
2017-01-25T09:58:28.707Z,490
2017-01-25T09:59:40.347Z,435
2017-01-25T10:00:51.745Z,420
2017-01-25T10:02:03.159Z,395
2017-01-25T10:03:14.558Z,365
2017-01-25T10:04:25.957Z,370
2017-01-25T10:05:37.409Z,405
2017-01-25T10:06:48.803Z,420
2017-01-25T10:08:00.206Z,415
2017-01-25T10:09:11.605Z,390
2017-01-25T10:10:22.998Z,380
2017-01-25T10:11:34.446Z,390
2017-01-25T10:12:45.842Z,385
2017-01-25T10:13:57.242Z,405
2017-01-25T10:15:08.647Z,450
2017-01-25T10:16:20.044Z,490
2017-01-25T10:17:31.487Z,465
2017-01-25T10:18:42.872Z,430
2017-01-25T10:19:54.301Z,450
2017-01-25T10:21:05.701Z,500
2017-01-25T10:22:17.107Z,490
2017-01-25T10:23:28.556Z,445
2017-01-25T10:24:39.956Z,440
2017-01-25T10:25:51.556Z,425
2017-01-25T10:27:02.963Z,405
2017-01-25T10:28:14.374Z,380
2017-01-25T10:29:25.825Z,375
2017-01-25T10:30:37.226Z,360
2017-01-25T10:31:48.813Z,350
2017-01-25T10:33:00.208Z,365
2017-01-25T10:34:11.610Z,385
2017-01-25T10:35:23.046Z,415
2017-01-25T10:36:34.446Z,435
2017-01-25T10:37:45.843Z,440
2017-01-25T10:38:57.432Z,435
2017-01-25T10:40:08.831Z,435
2017-01-25T10:41:20.485Z,455
2017-01-25T10:42:31.885Z,450
2017-01-25T10:43:43.282Z,440
2017-01-25T10:44:54.686Z,475
2017-01-25T10:46:06.093Z,495
2017-01-25T10:47:17.538Z,460
2017-01-25T10:48:28.965Z,460
2017-01-25T10:49:40.362Z,515
2017-01-25T10:50:51.789Z,555
2017-01-25T10:52:03.183Z,565
2017-01-25T10:53:14.828Z,525
2017-01-25T10:54:26.227Z,460
2017-01-25T10:55:37.627Z,440
2017-01-25T10:56:49.025Z,460
2017-01-25T10:58:00.424Z,480
2017-01-25T10:59:11.875Z,465
2017-01-25T11:00:23.274Z,440
2017-01-25T11:01:34.675Z,450
2017-01-25T11:02:46.080Z,495
2017-01-25T11:03:57.480Z,470
2017-01-25T11:05:08.929Z,455
2017-01-25T11:06:20.324Z,475
2017-01-25T11:07:31.724Z,600
2017-01-25T11:08:43.325Z,545
2017-01-25T11:09:54.755Z,510
2017-01-25T11:11:06.403Z,565
2017-01-25T11:12:17.810Z,590
2017-01-25T11:13:29.209Z,635
2017-01-25T11:14:40.610Z,495
2017-01-25T11:15:52.213Z,485
2017-01-25T11:17:03.662Z,420
2017-01-25T11:18:15.060Z,410
2017-01-25T11:19:26.460Z,420
2017-01-25T11:20:37.864Z,425
2017-01-25T11:21:49.463Z,435
2017-01-25T11:23:01.132Z,405
2017-01-25T11:24:12.541Z,375
2017-01-25T11:25:23.950Z,345
2017-01-25T11:26:35.346Z,315
2017-01-25T11:27:46.750Z,305
2017-01-25T11:28:58.197Z,325
2017-01-25T11:30:09.598Z,345
2017-01-25T11:31:20.996Z,350
2017-01-25T11:32:32.390Z,360
2017-01-25T11:33:43.990Z,365
2017-01-25T11:34:55.437Z,380
2017-01-25T11:36:06.825Z,380
2017-01-25T11:37:18.223Z,345
2017-01-25T11:38:29.622Z,340
2017-01-25T11:39:41.014Z,335
2017-01-25T11:40:52.464Z,310
2017-01-25T11:42:03.882Z,290
2017-01-25T11:43:15.479Z,295
2017-01-25T11:44:26.885Z,295
2017-01-25T11:45:38.277Z,295
2017-01-25T11:46:49.722Z,305
2017-01-25T11:48:01.122Z,350
2017-01-25T11:49:12.712Z,395
2017-01-25T11:50:24.105Z,400
2017-01-25T11:51:35.712Z,390
2017-01-25T11:52:47.158Z,425
2017-01-25T11:53:58.559Z,380
2017-01-25T11:55:09.959Z,375
2017-01-25T11:56:21.366Z,405
2017-01-25T11:57:32.767Z,375
2017-01-25T11:58:44.223Z,380
2017-01-25T11:59:55.617Z,405
2017-01-25T12:01:07.014Z,395
2017-01-25T12:02:18.450Z,385
2017-01-25T12:03:29.842Z,390
2017-01-25T12:04:41.283Z,390
2017-01-25T12:05:52.692Z,375
2017-01-25T12:07:04.095Z,365
2017-01-25T12:08:15.693Z,370
2017-01-25T12:09:27.292Z,340
2017-01-25T12:10:38.741Z,320
2017-01-25T12:11:50.139Z,310
2017-01-25T12:13:01.542Z,325
2017-01-25T12:14:12.945Z,325
2017-01-25T12:15:24.536Z,340
2017-01-25T12:16:35.999Z,345
2017-01-25T12:17:47.399Z,345
2017-01-25T12:18:58.797Z,345
2017-01-25T12:20:10.196Z,345
2017-01-25T12:21:21.602Z,325
2017-01-25T12:22:33.258Z,325
2017-01-25T12:23:44.660Z,345
2017-01-25T12:24:56.054Z,350
2017-01-25T12:26:07.456Z,330
2017-01-25T12:27:18.852Z,330
2017-01-25T12:28:30.299Z,330
2017-01-25T12:29:41.901Z,335
2017-01-25T12:30:53.295Z,340
2017-01-25T12:32:04.697Z,345
2017-01-25T12:33:16.091Z,360
2017-01-25T12:34:27.537Z,365
2017-01-25T12:35:39.341Z,375
2017-01-25T12:36:50.953Z,385
2017-01-25T12:38:02.351Z,400
2017-01-25T12:39:13.757Z,410
2017-01-25T12:40:25.203Z,415
2017-01-25T12:41:36.594Z,440
2017-01-25T12:42:48.389Z,445
2017-01-25T12:43:59.785Z,475
2017-01-25T12:45:11.181Z,505
2017-01-25T12:46:22.625Z,500
2017-01-25T12:47:34.028Z,465
2017-01-25T12:48:45.633Z,465
2017-01-25T12:49:57.040Z,475
2017-01-25T12:51:08.430Z,430
2017-01-25T12:52:20.083Z,400
2017-01-25T12:53:31.485Z,410
2017-01-25T12:54:42.892Z,365
2017-01-25T12:55:54.295Z,360
2017-01-25T12:57:05.690Z,340
2017-01-25T12:58:17.536Z,320
2017-01-25T12:59:28.935Z,290
2017-01-25T13:00:40.337Z,280
2017-01-25T13:01:51.734Z,275
2017-01-25T13:03:03.135Z,250
2017-01-25T13:04:14.583Z,245
2017-01-25T13:05:25.980Z,235
2017-01-25T13:06:37.378Z,230
2017-01-25T13:07:48.776Z,225
2017-01-25T13:09:00.372Z,210
2017-01-25T13:10:11.815Z,200
2017-01-25T13:11:23.214Z,210
2017-01-25T13:12:34.618Z,215
2017-01-25T13:13:46.024Z,215
2017-01-25T13:14:57.622Z,205
2017-01-25T13:16:09.078Z,215
2017-01-25T13:17:20.473Z,245
2017-01-25T13:18:31.872Z,265
2017-01-25T13:19:43.268Z,260
2017-01-25T13:20:54.863Z,255
2017-01-25T13:22:06.914Z,265
2017-01-25T13:23:18.519Z,270
2017-01-25T13:24:29.943Z,260
2017-01-25T13:25:41.339Z,245
2017-01-25T13:26:52.735Z,235
2017-01-25T13:28:04.189Z,220
2017-01-25T13:29:15.587Z,220
2017-01-25T13:30:26.981Z,220
2017-01-25T13:31:38.387Z,200
2017-01-25T13:32:49.788Z,185
2017-01-25T13:34:01.437Z,165
2017-01-25T13:35:12.836Z,145
2017-01-25T13:36:24.223Z,130
2017-01-25T13:37:35.820Z,125
2017-01-25T13:38:47.214Z,125
2017-01-25T13:39:58.692Z,115
2017-01-25T13:41:10.291Z,110
2017-01-25T13:42:21.689Z,100
2017-01-25T13:43:33.084Z,100
2017-01-25T13:44:44.476Z,95
2017-01-25T13:45:56.330Z,95
2017-01-25T13:47:07.728Z,95
2017-01-25T13:48:19.135Z,90
2017-01-25T13:49:30.533Z,90
2017-01-25T13:50:41.930Z,85
2017-01-25T13:51:53.372Z,85
2017-01-25T13:53:04.772Z,85
2017-01-25T13:54:16.169Z,85
2017-01-25T13:55:27.592Z,85
2017-01-25T13:56:38.991Z,85
2017-01-25T13:57:50.671Z,85
2017-01-25T13:59:02.479Z,85
2017-01-25T14:00:13.872Z,85
2017-01-25T14:01:25.272Z,85
2017-01-25T14:02:36.667Z,85
2017-01-25T14:03:48.121Z,85
2017-01-25T14:04:59.515Z,85
2017-01-25T14:06:10.910Z,85
2017-01-25T14:07:22.309Z,85
2017-01-25T14:08:33.710Z,85
2017-01-25T14:09:45.179Z,85
2017-01-25T14:10:56.572Z,85
2017-01-25T14:12:07.975Z,85
2017-01-25T14:13:19.379Z,85
2017-01-25T14:14:31.185Z,85
2017-01-25T14:15:42.630Z,90
2017-01-25T14:16:54.033Z,90
2017-01-25T14:18:05.464Z,95
2017-01-25T14:19:16.865Z,100
2017-01-25T14:20:28.263Z,110
2017-01-25T14:21:39.706Z,115
2017-01-25T14:22:51.094Z,115
2017-01-25T14:24:02.493Z,110
2017-01-25T14:25:13.894Z,105
2017-01-25T14:26:25.689Z,105
2017-01-25T14:27:37.137Z,105
2017-01-25T14:28:48.536Z,105
2017-01-25T14:29:59.929Z,110
2017-01-25T14:31:11.322Z,115
2017-01-25T14:32:22.722Z,120
2017-01-25T14:33:34.173Z,130
2017-01-25T14:34:45.574Z,140
2017-01-25T14:35:57.175Z,145
2017-01-25T14:37:08.590Z,145
2017-01-25T14:38:19.994Z,150
2017-01-25T14:39:31.441Z,150
2017-01-25T14:40:42.846Z,150
2017-01-25T14:41:54.244Z,145
2017-01-25T14:43:05.839Z,140
2017-01-25T14:44:17.232Z,140
2017-01-25T14:45:28.675Z,135
2017-01-25T14:46:40.067Z,135
2017-01-25T14:47:51.466Z,140
2017-01-25T14:49:02.861Z,130
2017-01-25T14:50:14.259Z,130
2017-01-25T14:51:25.710Z,130
2017-01-25T14:52:37.108Z,125
2017-01-25T14:53:48.502Z,125
2017-01-25T14:54:59.900Z,125
2017-01-25T14:56:11.301Z,120
2017-01-25T14:57:22.754Z,120
2017-01-25T14:58:34.157Z,120
2017-01-25T14:59:45.553Z,115
2017-01-25T15:00:57.191Z,115
2017-01-25T15:02:08.813Z,115
2017-01-25T15:03:20.467Z,115
2017-01-25T15:04:31.867Z,110
2017-01-25T15:05:43.301Z,110
2017-01-25T15:06:54.693Z,105
2017-01-25T15:08:06.094Z,105
2017-01-25T15:09:17.748Z,100
2017-01-25T15:10:29.347Z,95
2017-01-25T15:11:40.745Z,95
2017-01-25T15:12:52.140Z,90
2017-01-25T15:14:03.738Z,90
2017-01-25T15:15:15.188Z,85
2017-01-25T15:16:26.591Z,85
2017-01-25T15:17:37.989Z,80
2017-01-25T15:18:49.385Z,80
2017-01-25T15:20:00.782Z,75
2017-01-25T15:21:12.257Z,75
2017-01-25T15:22:23.661Z,70
2017-01-25T15:23:35.260Z,70
2017-01-25T15:24:46.858Z,65
2017-01-25T15:25:58.241Z,65
2017-01-25T15:27:09.696Z,65
2017-01-25T15:28:21.106Z,60
2017-01-25T15:29:32.506Z,60
2017-01-25T15:30:43.901Z,60
2017-01-25T15:31:55.298Z,55
2017-01-25T15:33:06.949Z,55
2017-01-25T15:34:18.344Z,50
2017-01-25T15:35:29.751Z,50
2017-01-25T15:36:41.148Z,50
2017-01-25T15:37:52.736Z,45
2017-01-25T15:39:04.200Z,45
2017-01-25T15:40:15.591Z,40
2017-01-25T15:41:26.985Z,40
2017-01-25T15:42:38.579Z,35
2017-01-25T15:43:49.974Z,35
2017-01-25T15:45:01.632Z,35
2017-01-25T15:46:13.028Z,35
2017-01-25T15:47:24.427Z,30
2017-01-25T15:48:35.853Z,30
2017-01-25T15:49:47.248Z,25
2017-01-25T15:50:58.694Z,25
2017-01-25T15:52:10.095Z,25
2017-01-25T15:53:21.496Z,20
2017-01-25T15:54:32.890Z,20
2017-01-25T15:55:44.288Z,20
2017-01-25T15:56:55.731Z,15
2017-01-25T15:58:07.122Z,15
2017-01-25T15:59:18.514Z,15
2017-01-25T16:00:29.917Z,10
2017-01-25T16:01:41.320Z,10
2017-01-25T16:02:53.172Z,10
2017-01-25T16:04:04.563Z,10
2017-01-25T16:05:15.957Z,10
2017-01-25T16:06:27.363Z,5
2017-01-25T16:07:38.960Z,5
2017-01-25T16:08:50.640Z,5
2017-01-25T16:10:02.246Z,5
2017-01-25T16:11:13.641Z,5
2017-01-25T16:12:25.039Z,5
2017-01-25T16:13:36.438Z,0
2017-01-25T16:14:47.890Z,0
2017-01-25T16:15:59.492Z,0
2017-01-25T16:17:10.900Z,0
2017-01-25T16:18:22.294Z,0
2017-01-25T16:19:33.893Z,0
2017-01-25T16:20:45.375Z,0
2017-01-25T16:21:56.969Z,0
2017-01-25T16:23:08.373Z,0
2017-01-25T16:24:19.770Z,0
2017-01-25T16:25:31.167Z,0
2017-01-25T16:26:42.613Z,0
2017-01-25T16:27:54.006Z,0
2017-01-25T16:29:05.406Z,0
2017-01-25T16:30:16.797Z,0
2017-01-25T16:31:28.394Z,0
2017-01-25T16:32:40.042Z,0
2017-01-25T16:33:51.643Z,0
2017-01-25T16:35:03.239Z,0
2017-01-25T16:36:14.637Z,0
2017-01-25T16:37:26.225Z,0
2017-01-25T16:38:37.675Z,0
2017-01-25T16:39:49.279Z,0
2017-01-25T16:41:00.679Z,0
2017-01-25T16:42:12.080Z,0
2017-01-25T16:43:23.478Z,0
2017-01-25T16:44:34.927Z,0
2017-01-25T16:45:46.521Z,0
2017-01-25T16:46:58.119Z,0
2017-01-25T16:48:09.533Z,0
2017-01-25T16:49:20.926Z,0
2017-01-25T16:50:32.376Z,0
2017-01-25T16:51:43.973Z,0
2017-01-25T16:52:55.376Z,0
2017-01-25T16:54:06.768Z,0
2017-01-25T16:55:18.171Z,0
2017-01-25T16:56:29.617Z,0
2017-01-25T16:57:41.007Z,0
2017-01-25T16:58:52.397Z,0
2017-01-25T17:00:03.788Z,0
2017-01-25T17:01:15.183Z,0
2017-01-25T17:02:26.630Z,0